sensor_id;sensor_type;location;lat;lon;timestamp;temperature;humidity
8862;DHT22;4799;50.996;4.754;2022-09-03T00:02:12;18.00;76.30
8862;DHT22;4799;50.996;4.754;2022-09-03T00:10:20;17.80;77.70
8862;DHT22;4799;50.996;4.754;2022-09-03T00:12:48;17.80;77.50
8862;DHT22;4799;50.996;4.754;2022-09-03T00:15:23;17.80;77.40
8862;DHT22;4799;50.996;4.754;2022-09-03T00:17:56;17.70;77.30
8862;DHT22;4799;50.996;4.754;2022-09-03T00:20:35;17.80;77.40
8862;DHT22;4799;50.996;4.754;2022-09-03T00:23:06;17.70;77.40
8862;DHT22;4799;50.996;4.754;2022-09-03T00:25:42;17.70;77.00
8862;DHT22;4799;50.996;4.754;2022-09-03T00:28:18;17.70;77.70
8862;DHT22;4799;50.996;4.754;2022-09-03T00:30:46;17.80;77.90
8862;DHT22;4799;50.996;4.754;2022-09-03T00:33:26;17.80;78.00
8862;DHT22;4799;50.996;4.754;2022-09-03T00:36:09;17.70;78.30
8862;DHT22;4799;50.996;4.754;2022-09-03T00:38:37;17.80;78.50
8862;DHT22;4799;50.996;4.754;2022-09-03T00:41:34;17.70;78.20
8862;DHT22;4799;50.996;4.754;2022-09-03T00:44:12;17.70;79.00
8862;DHT22;4799;50.996;4.754;2022-09-03T00:46:52;17.70;78.50
8862;DHT22;4799;50.996;4.754;2022-09-03T00:49:49;17.70;78.80
8862;DHT22;4799;50.996;4.754;2022-09-03T00:55:06;17.60;79.20
8862;DHT22;4799;50.996;4.754;2022-09-03T00:57:57;17.60;79.70
8862;DHT22;4799;50.996;4.754;2022-09-03T01:00:28;17.50;79.50
8862;DHT22;4799;50.996;4.754;2022-09-03T01:03:08;17.60;80.10
8862;DHT22;4799;50.996;4.754;2022-09-03T01:11:31;17.70;80.80
8862;DHT22;4799;50.996;4.754;2022-09-03T01:22:56;17.70;80.00
8862;DHT22;4799;50.996;4.754;2022-09-03T01:31:30;17.80;80.00
8862;DHT22;4799;50.996;4.754;2022-09-03T01:36:40;17.70;80.30
8862;DHT22;4799;50.996;4.754;2022-09-03T01:39:33;17.70;80.70
8862;DHT22;4799;50.996;4.754;2022-09-03T01:42:13;17.70;81.20
8862;DHT22;4799;50.996;4.754;2022-09-03T01:45:04;17.70;81.00
8862;DHT22;4799;50.996;4.754;2022-09-03T01:53:26;17.70;81.30
8862;DHT22;4799;50.996;4.754;2022-09-03T01:56:26;17.70;81.70
8862;DHT22;4799;50.996;4.754;2022-09-03T02:01:38;17.80;81.40
8862;DHT22;4799;50.996;4.754;2022-09-03T02:04:21;17.80;81.40
8862;DHT22;4799;50.996;4.754;2022-09-03T02:06:51;17.80;81.10
8862;DHT22;4799;50.996;4.754;2022-09-03T02:09:18;17.80;81.10
8862;DHT22;4799;50.996;4.754;2022-09-03T02:11:48;17.90;81.30
8862;DHT22;4799;50.996;4.754;2022-09-03T02:14:15;17.90;81.10
8862;DHT22;4799;50.996;4.754;2022-09-03T02:16:41;17.90;81.10
8862;DHT22;4799;50.996;4.754;2022-09-03T02:19:13;17.90;81.10
8862;DHT22;4799;50.996;4.754;2022-09-03T02:21:51;17.90;81.10
8862;DHT22;4799;50.996;4.754;2022-09-03T02:24:18;18.00;81.30
8862;DHT22;4799;50.996;4.754;2022-09-03T02:26:44;18.00;81.10
8862;DHT22;4799;50.996;4.754;2022-09-03T02:29:13;18.00;81.20
8862;DHT22;4799;50.996;4.754;2022-09-03T02:31:39;18.00;81.10
8862;DHT22;4799;50.996;4.754;2022-09-03T02:34:05;18.00;80.80
8862;DHT22;4799;50.996;4.754;2022-09-03T02:36:37;18.00;80.90
8862;DHT22;4799;50.996;4.754;2022-09-03T02:39:04;18.00;81.20
8862;DHT22;4799;50.996;4.754;2022-09-03T02:41:31;18.00;81.50
8862;DHT22;4799;50.996;4.754;2022-09-03T02:44:17;18.00;81.60
8862;DHT22;4799;50.996;4.754;2022-09-03T02:46:58;18.00;81.60
8862;DHT22;4799;50.996;4.754;2022-09-03T02:49:24;18.00;81.80
8862;DHT22;4799;50.996;4.754;2022-09-03T02:51:49;18.00;81.70
8862;DHT22;4799;50.996;4.754;2022-09-03T02:54:15;18.00;82.20
8862;DHT22;4799;50.996;4.754;2022-09-03T02:56:41;18.00;82.60
8862;DHT22;4799;50.996;4.754;2022-09-03T02:59:08;18.00;82.90
8862;DHT22;4799;50.996;4.754;2022-09-03T03:01:34;18.00;82.80
8862;DHT22;4799;50.996;4.754;2022-09-03T03:03:59;18.00;83.00
8862;DHT22;4799;50.996;4.754;2022-09-03T03:06:25;18.00;83.30
8862;DHT22;4799;50.996;4.754;2022-09-03T03:08:51;18.00;83.60
8862;DHT22;4799;50.996;4.754;2022-09-03T03:11:18;18.00;84.00
8862;DHT22;4799;50.996;4.754;2022-09-03T03:13:45;18.00;84.00
8862;DHT22;4799;50.996;4.754;2022-09-03T03:16:12;18.00;84.00
8862;DHT22;4799;50.996;4.754;2022-09-03T03:18:38;18.00;84.00
8862;DHT22;4799;50.996;4.754;2022-09-03T03:21:06;18.10;84.10
8862;DHT22;4799;50.996;4.754;2022-09-03T03:23:33;18.00;84.00
8862;DHT22;4799;50.996;4.754;2022-09-03T03:26:12;18.00;84.00
8862;DHT22;4799;50.996;4.754;2022-09-03T03:28:38;18.10;84.10
8862;DHT22;4799;50.996;4.754;2022-09-03T03:31:12;18.10;84.30
8862;DHT22;4799;50.996;4.754;2022-09-03T03:33:39;18.10;85.10
8862;DHT22;4799;50.996;4.754;2022-09-03T03:36:11;18.10;85.00
8862;DHT22;4799;50.996;4.754;2022-09-03T03:38:38;18.10;85.60
8862;DHT22;4799;50.996;4.754;2022-09-03T03:41:15;18.10;84.40
8862;DHT22;4799;50.996;4.754;2022-09-03T03:43:42;18.10;84.50
8862;DHT22;4799;50.996;4.754;2022-09-03T03:46:08;18.10;84.50
8862;DHT22;4799;50.996;4.754;2022-09-03T03:48:35;18.10;84.80
8862;DHT22;4799;50.996;4.754;2022-09-03T03:51:03;18.10;85.00
8862;DHT22;4799;50.996;4.754;2022-09-03T03:53:31;18.10;85.90
8862;DHT22;4799;50.996;4.754;2022-09-03T03:56:00;18.10;86.50
8862;DHT22;4799;50.996;4.754;2022-09-03T03:58:30;18.10;86.90
8862;DHT22;4799;50.996;4.754;2022-09-03T04:01:08;18.10;86.30
8862;DHT22;4799;50.996;4.754;2022-09-03T04:03:35;18.10;86.60
8862;DHT22;4799;50.996;4.754;2022-09-03T04:06:02;18.10;86.90
8862;DHT22;4799;50.996;4.754;2022-09-03T04:08:29;18.10;87.50
8862;DHT22;4799;50.996;4.754;2022-09-03T04:11:00;18.10;87.90
8862;DHT22;4799;50.996;4.754;2022-09-03T04:13:33;18.10;88.20
8862;DHT22;4799;50.996;4.754;2022-09-03T04:16:13;18.10;89.20
8862;DHT22;4799;50.996;4.754;2022-09-03T04:18:40;18.00;88.60
8862;DHT22;4799;50.996;4.754;2022-09-03T04:21:10;18.00;87.70
8862;DHT22;4799;50.996;4.754;2022-09-03T04:23:41;18.00;87.40
8862;DHT22;4799;50.996;4.754;2022-09-03T04:26:09;18.00;87.30
8862;DHT22;4799;50.996;4.754;2022-09-03T04:28:35;18.00;87.10
8862;DHT22;4799;50.996;4.754;2022-09-03T04:31:03;18.00;86.70
8862;DHT22;4799;50.996;4.754;2022-09-03T04:33:30;18.00;86.60
8862;DHT22;4799;50.996;4.754;2022-09-03T04:36:07;18.00;86.30
8862;DHT22;4799;50.996;4.754;2022-09-03T04:38:34;18.00;86.10
8862;DHT22;4799;50.996;4.754;2022-09-03T04:41:00;18.00;86.10
8862;DHT22;4799;50.996;4.754;2022-09-03T04:43:27;18.00;85.80
8862;DHT22;4799;50.996;4.754;2022-09-03T04:46:01;18.00;85.80
8862;DHT22;4799;50.996;4.754;2022-09-03T04:48:28;18.00;86.10
8862;DHT22;4799;50.996;4.754;2022-09-03T04:50:59;17.90;87.00
8862;DHT22;4799;50.996;4.754;2022-09-03T04:53:34;17.90;88.20
8862;DHT22;4799;50.996;4.754;2022-09-03T04:56:00;17.90;89.30
8862;DHT22;4799;50.996;4.754;2022-09-03T04:58:26;18.00;90.70
8862;DHT22;4799;50.996;4.754;2022-09-03T05:00:52;17.90;90.70
8862;DHT22;4799;50.996;4.754;2022-09-03T05:03:18;17.90;90.20
8862;DHT22;4799;50.996;4.754;2022-09-03T05:05:55;17.90;90.00
8862;DHT22;4799;50.996;4.754;2022-09-03T05:08:21;18.00;90.00
8862;DHT22;4799;50.996;4.754;2022-09-03T05:10:47;18.00;89.70
8862;DHT22;4799;50.996;4.754;2022-09-03T05:13:13;18.00;89.70
8862;DHT22;4799;50.996;4.754;2022-09-03T05:15:39;17.90;89.50
8862;DHT22;4799;50.996;4.754;2022-09-03T05:18:06;17.90;89.80
8862;DHT22;4799;50.996;4.754;2022-09-03T05:20:32;18.00;89.70
8862;DHT22;4799;50.996;4.754;2022-09-03T05:23:01;18.00;89.60
8862;DHT22;4799;50.996;4.754;2022-09-03T05:25:28;18.00;89.60
8862;DHT22;4799;50.996;4.754;2022-09-03T05:27:57;18.00;89.70
8862;DHT22;4799;50.996;4.754;2022-09-03T05:30:23;18.00;89.20
8862;DHT22;4799;50.996;4.754;2022-09-03T05:32:50;18.00;88.90
8862;DHT22;4799;50.996;4.754;2022-09-03T05:35:17;18.10;89.20
8862;DHT22;4799;50.996;4.754;2022-09-03T05:37:43;18.00;89.10
8862;DHT22;4799;50.996;4.754;2022-09-03T05:40:09;18.00;88.90
8862;DHT22;4799;50.996;4.754;2022-09-03T05:42:36;18.10;88.80
8862;DHT22;4799;50.996;4.754;2022-09-03T05:45:06;18.10;88.70
8862;DHT22;4799;50.996;4.754;2022-09-03T05:47:38;18.10;89.10
8862;DHT22;4799;50.996;4.754;2022-09-03T05:50:08;18.20;88.90
8862;DHT22;4799;50.996;4.754;2022-09-03T05:52:36;18.20;88.80
8862;DHT22;4799;50.996;4.754;2022-09-03T05:55:02;18.20;88.70
8862;DHT22;4799;50.996;4.754;2022-09-03T05:57:28;18.20;88.80
8862;DHT22;4799;50.996;4.754;2022-09-03T05:59:55;18.20;88.30
8862;DHT22;4799;50.996;4.754;2022-09-03T06:02:21;18.30;88.10
8862;DHT22;4799;50.996;4.754;2022-09-03T06:04:47;18.30;87.90
8862;DHT22;4799;50.996;4.754;2022-09-03T06:07:13;18.40;88.10
8862;DHT22;4799;50.996;4.754;2022-09-03T06:09:39;18.40;87.80
8862;DHT22;4799;50.996;4.754;2022-09-03T06:12:06;18.50;87.90
8862;DHT22;4799;50.996;4.754;2022-09-03T06:14:32;18.50;86.80
8862;DHT22;4799;50.996;4.754;2022-09-03T06:16:57;18.50;87.00
8862;DHT22;4799;50.996;4.754;2022-09-03T06:19:23;18.60;87.20
8862;DHT22;4799;50.996;4.754;2022-09-03T06:21:49;18.60;87.40
8862;DHT22;4799;50.996;4.754;2022-09-03T06:24:20;18.70;87.30
8862;DHT22;4799;50.996;4.754;2022-09-03T06:26:49;18.70;87.00
8862;DHT22;4799;50.996;4.754;2022-09-03T06:29:15;18.80;86.90
8862;DHT22;4799;50.996;4.754;2022-09-03T06:31:42;18.80;86.60
8862;DHT22;4799;50.996;4.754;2022-09-03T06:34:08;18.90;86.40
8862;DHT22;4799;50.996;4.754;2022-09-03T06:36:34;19.00;86.30
8862;DHT22;4799;50.996;4.754;2022-09-03T06:39:00;19.00;86.20
8862;DHT22;4799;50.996;4.754;2022-09-03T06:41:31;19.10;86.20
8862;DHT22;4799;50.996;4.754;2022-09-03T06:44:00;19.20;85.80
8862;DHT22;4799;50.996;4.754;2022-09-03T06:46:29;19.30;85.40
8862;DHT22;4799;50.996;4.754;2022-09-03T06:48:55;19.40;85.00
8862;DHT22;4799;50.996;4.754;2022-09-03T06:51:23;19.50;85.30
8862;DHT22;4799;50.996;4.754;2022-09-03T06:53:53;19.60;84.90
8862;DHT22;4799;50.996;4.754;2022-09-03T06:56:22;19.70;84.40
8862;DHT22;4799;50.996;4.754;2022-09-03T06:58:57;19.80;83.50
8862;DHT22;4799;50.996;4.754;2022-09-03T07:01:28;19.90;82.40
8862;DHT22;4799;50.996;4.754;2022-09-03T07:04:00;20.10;82.30
8862;DHT22;4799;50.996;4.754;2022-09-03T07:06:29;20.20;81.40
8862;DHT22;4799;50.996;4.754;2022-09-03T07:08:55;20.40;81.20
8862;DHT22;4799;50.996;4.754;2022-09-03T07:11:23;20.60;81.00
8862;DHT22;4799;50.996;4.754;2022-09-03T07:13:52;20.80;79.70
8862;DHT22;4799;50.996;4.754;2022-09-03T07:16:32;21.00;78.90
8862;DHT22;4799;50.996;4.754;2022-09-03T07:18:58;21.20;78.60
8862;DHT22;4799;50.996;4.754;2022-09-03T07:21:27;21.30;78.00
8862;DHT22;4799;50.996;4.754;2022-09-03T07:23:54;21.60;77.00
8862;DHT22;4799;50.996;4.754;2022-09-03T07:26:22;21.70;76.00
8862;DHT22;4799;50.996;4.754;2022-09-03T07:28:48;21.90;75.00
8862;DHT22;4799;50.996;4.754;2022-09-03T07:31:18;21.90;74.30
8862;DHT22;4799;50.996;4.754;2022-09-03T07:33:45;22.00;74.20
8862;DHT22;4799;50.996;4.754;2022-09-03T07:36:16;22.10;73.90
8862;DHT22;4799;50.996;4.754;2022-09-03T07:38:43;22.10;73.30
8862;DHT22;4799;50.996;4.754;2022-09-03T07:41:11;22.10;72.40
8862;DHT22;4799;50.996;4.754;2022-09-03T07:43:38;22.00;72.50
8862;DHT22;4799;50.996;4.754;2022-09-03T07:46:06;22.00;72.20
8862;DHT22;4799;50.996;4.754;2022-09-03T07:48:33;22.10;72.30
8862;DHT22;4799;50.996;4.754;2022-09-03T07:50:59;22.10;72.30
8862;DHT22;4799;50.996;4.754;2022-09-03T07:53:28;22.10;72.60
8862;DHT22;4799;50.996;4.754;2022-09-03T07:56:04;22.10;72.30
8862;DHT22;4799;50.996;4.754;2022-09-03T07:58:31;22.10;72.30
8862;DHT22;4799;50.996;4.754;2022-09-03T08:00:58;22.10;72.30
8862;DHT22;4799;50.996;4.754;2022-09-03T08:03:28;22.10;72.30
8862;DHT22;4799;50.996;4.754;2022-09-03T08:05:53;22.00;72.60
8862;DHT22;4799;50.996;4.754;2022-09-03T08:08:24;22.00;72.50
8862;DHT22;4799;50.996;4.754;2022-09-03T08:10:50;21.90;72.50
8862;DHT22;4799;50.996;4.754;2022-09-03T08:13:16;21.80;72.80
8862;DHT22;4799;50.996;4.754;2022-09-03T08:15:41;21.80;73.50
8862;DHT22;4799;50.996;4.754;2022-09-03T08:18:08;21.70;74.30
8862;DHT22;4799;50.996;4.754;2022-09-03T08:20:35;21.70;74.70
8862;DHT22;4799;50.996;4.754;2022-09-03T08:23:02;21.70;75.80
8862;DHT22;4799;50.996;4.754;2022-09-03T08:25:28;21.70;76.10
8862;DHT22;4799;50.996;4.754;2022-09-03T08:27:57;21.70;76.70
8862;DHT22;4799;50.996;4.754;2022-09-03T08:30:23;21.80;77.20
8862;DHT22;4799;50.996;4.754;2022-09-03T08:32:49;21.80;77.50
8862;DHT22;4799;50.996;4.754;2022-09-03T08:35:15;21.90;77.60
8862;DHT22;4799;50.996;4.754;2022-09-03T08:37:41;21.90;77.70
8862;DHT22;4799;50.996;4.754;2022-09-03T08:40:08;22.00;77.50
8862;DHT22;4799;50.996;4.754;2022-09-03T08:43:15;22.00;77.50
8862;DHT22;4799;50.996;4.754;2022-09-03T08:45:43;22.20;78.50
8862;DHT22;4799;50.996;4.754;2022-09-03T08:48:13;22.20;78.10
8862;DHT22;4799;50.996;4.754;2022-09-03T08:50:43;22.20;78.00
8862;DHT22;4799;50.996;4.754;2022-09-03T08:55:50;22.30;77.70
8862;DHT22;4799;50.996;4.754;2022-09-03T08:58:21;22.30;78.40
8862;DHT22;4799;50.996;4.754;2022-09-03T09:10:12;22.50;78.50
8862;DHT22;4799;50.996;4.754;2022-09-03T09:15:16;22.50;78.50
8862;DHT22;4799;50.996;4.754;2022-09-03T09:20:46;22.60;78.90
8862;DHT22;4799;50.996;4.754;2022-09-03T09:23:17;22.60;79.70
8862;DHT22;4799;50.996;4.754;2022-09-03T09:25:48;22.60;79.80
8862;DHT22;4799;50.996;4.754;2022-09-03T09:28:20;22.60;80.40
8862;DHT22;4799;50.996;4.754;2022-09-03T09:30:48;22.70;81.00
8862;DHT22;4799;50.996;4.754;2022-09-03T09:33:15;22.90;81.60
8862;DHT22;4799;50.996;4.754;2022-09-03T09:35:41;23.10;81.70
8862;DHT22;4799;50.996;4.754;2022-09-03T09:38:08;23.30;83.00
8862;DHT22;4799;50.996;4.754;2022-09-03T09:40:40;23.50;82.60
8862;DHT22;4799;50.996;4.754;2022-09-03T09:43:15;23.60;82.10
8862;DHT22;4799;50.996;4.754;2022-09-03T09:45:43;23.70;81.40
8862;DHT22;4799;50.996;4.754;2022-09-03T09:50:43;23.80;81.80
8862;DHT22;4799;50.996;4.754;2022-09-03T09:53:10;23.90;81.10
8862;DHT22;4799;50.996;4.754;2022-09-03T09:55:54;24.00;81.70
8862;DHT22;4799;50.996;4.754;2022-09-03T09:58:21;24.10;82.40
8862;DHT22;4799;50.996;4.754;2022-09-03T10:01:20;24.20;82.40
8862;DHT22;4799;50.996;4.754;2022-09-03T10:03:58;24.20;82.40
8862;DHT22;4799;50.996;4.754;2022-09-03T10:06:26;24.30;83.50
8862;DHT22;4799;50.996;4.754;2022-09-03T10:09:16;24.40;83.40
8862;DHT22;4799;50.996;4.754;2022-09-03T10:11:47;24.30;83.30
8862;DHT22;4799;50.996;4.754;2022-09-03T10:15:10;24.30;83.60
8862;DHT22;4799;50.996;4.754;2022-09-03T10:17:27;24.40;84.50
8862;DHT22;4799;50.996;4.754;2022-09-03T10:23:47;24.30;85.60
8862;DHT22;4799;50.996;4.754;2022-09-03T10:28:26;24.60;84.90
8862;DHT22;4799;50.996;4.754;2022-09-03T10:33:59;24.90;84.60
8862;DHT22;4799;50.996;4.754;2022-09-03T10:36:47;25.00;84.30
8862;DHT22;4799;50.996;4.754;2022-09-03T10:39:46;25.00;83.90
8862;DHT22;4799;50.996;4.754;2022-09-03T10:45:03;25.30;83.00
8862;DHT22;4799;50.996;4.754;2022-09-03T10:50:14;25.90;82.40
8862;DHT22;4799;50.996;4.754;2022-09-03T10:56:00;26.50;78.50
8862;DHT22;4799;50.996;4.754;2022-09-03T11:01:05;26.90;75.40
8862;DHT22;4799;50.996;4.754;2022-09-03T11:03:59;27.10;74.70
8862;DHT22;4799;50.996;4.754;2022-09-03T11:06:29;27.30;73.30
8862;DHT22;4799;50.996;4.754;2022-09-03T11:12:18;27.70;71.40
8862;DHT22;4799;50.996;4.754;2022-09-03T11:14:44;27.90;70.40
8862;DHT22;4799;50.996;4.754;2022-09-03T11:17:22;28.00;69.00
8862;DHT22;4799;50.996;4.754;2022-09-03T11:19:57;28.10;68.20
8862;DHT22;4799;50.996;4.754;2022-09-03T11:22:25;28.10;67.30
8862;DHT22;4799;50.996;4.754;2022-09-03T11:24:57;28.10;67.40
8862;DHT22;4799;50.996;4.754;2022-09-03T11:31:01;28.00;67.20
8862;DHT22;4799;50.996;4.754;2022-09-03T11:33:31;27.70;68.00
8862;DHT22;4799;50.996;4.754;2022-09-03T11:36:00;27.40;69.20
8862;DHT22;4799;50.996;4.754;2022-09-03T11:38:28;27.20;69.80
8862;DHT22;4799;50.996;4.754;2022-09-03T11:43:39;27.20;71.90
8862;DHT22;4799;50.996;4.754;2022-09-03T11:46:31;27.20;72.20
8862;DHT22;4799;50.996;4.754;2022-09-03T11:49:12;27.30;72.00
8862;DHT22;4799;50.996;4.754;2022-09-03T11:51:39;27.40;71.60
8862;DHT22;4799;50.996;4.754;2022-09-03T11:54:23;27.50;70.80
8862;DHT22;4799;50.996;4.754;2022-09-03T11:57:02;27.60;69.40
8862;DHT22;4799;50.996;4.754;2022-09-03T11:59:28;27.60;69.20
8862;DHT22;4799;50.996;4.754;2022-09-03T12:01:59;27.70;68.60
8862;DHT22;4799;50.996;4.754;2022-09-03T12:07:17;28.30;67.20
8862;DHT22;4799;50.996;4.754;2022-09-03T12:15:36;29.30;61.90
8862;DHT22;4799;50.996;4.754;2022-09-03T12:18:24;29.50;59.50
8862;DHT22;4799;50.996;4.754;2022-09-03T12:23:29;29.80;59.60
8862;DHT22;4799;50.996;4.754;2022-09-03T12:26:02;29.90;57.60
8862;DHT22;4799;50.996;4.754;2022-09-03T12:28:29;29.90;57.80
8862;DHT22;4799;50.996;4.754;2022-09-03T12:31:14;30.00;57.30
8862;DHT22;4799;50.996;4.754;2022-09-03T12:34:02;30.00;56.20
8862;DHT22;4799;50.996;4.754;2022-09-03T12:36:42;30.10;55.80
8862;DHT22;4799;50.996;4.754;2022-09-03T12:39:25;30.00;57.30
8862;DHT22;4799;50.996;4.754;2022-09-03T12:42:01;30.00;57.50
8862;DHT22;4799;50.996;4.754;2022-09-03T12:44:39;30.00;57.50
8862;DHT22;4799;50.996;4.754;2022-09-03T12:47:17;30.00;57.40
8862;DHT22;4799;50.996;4.754;2022-09-03T12:49:47;30.00;57.50
8862;DHT22;4799;50.996;4.754;2022-09-03T12:52:35;30.00;57.70
8862;DHT22;4799;50.996;4.754;2022-09-03T12:55:31;30.00;57.30
8862;DHT22;4799;50.996;4.754;2022-09-03T12:58:06;30.10;56.60
8862;DHT22;4799;50.996;4.754;2022-09-03T13:00:37;30.10;56.60
8862;DHT22;4799;50.996;4.754;2022-09-03T13:03:20;30.00;56.00
8862;DHT22;4799;50.996;4.754;2022-09-03T13:06:01;30.10;55.70
8862;DHT22;4799;50.996;4.754;2022-09-03T13:08:49;30.20;55.60
8862;DHT22;4799;50.996;4.754;2022-09-03T13:11:19;30.20;55.50
8862;DHT22;4799;50.996;4.754;2022-09-03T13:14:15;30.20;55.70
8862;DHT22;4799;50.996;4.754;2022-09-03T13:27:11;29.90;56.20
8862;DHT22;4799;50.996;4.754;2022-09-03T13:32:50;29.80;56.60
8862;DHT22;4799;50.996;4.754;2022-09-03T13:35:48;29.80;56.60
8862;DHT22;4799;50.996;4.754;2022-09-03T13:43:38;30.20;56.10
8862;DHT22;4799;50.996;4.754;2022-09-03T13:46:26;30.20;55.60
8862;DHT22;4799;50.996;4.754;2022-09-03T13:52:04;30.40;54.90
8862;DHT22;4799;50.996;4.754;2022-09-03T13:54:43;30.50;54.90
8862;DHT22;4799;50.996;4.754;2022-09-03T14:00:00;30.60;54.50
8862;DHT22;4799;50.996;4.754;2022-09-03T14:03:02;30.70;54.60
8862;DHT22;4799;50.996;4.754;2022-09-03T14:11:22;30.90;54.20
8862;DHT22;4799;50.996;4.754;2022-09-03T14:19:16;31.00;52.90
8862;DHT22;4799;50.996;4.754;2022-09-03T14:21:59;31.00;53.00
8862;DHT22;4799;50.996;4.754;2022-09-03T14:24:43;31.00;52.60
8862;DHT22;4799;50.996;4.754;2022-09-03T14:27:09;31.00;53.00
8862;DHT22;4799;50.996;4.754;2022-09-03T14:29:36;31.00;53.10
8862;DHT22;4799;50.996;4.754;2022-09-03T14:32:28;31.00;53.10
8862;DHT22;4799;50.996;4.754;2022-09-03T14:41:02;30.40;53.30
8862;DHT22;4799;50.996;4.754;2022-09-03T14:46:26;30.10;53.70
8862;DHT22;4799;50.996;4.754;2022-09-03T15:00:20;29.60;54.80
8862;DHT22;4799;50.996;4.754;2022-09-03T15:06:04;29.50;54.40
8862;DHT22;4799;50.996;4.754;2022-09-03T15:11:21;29.40;54.30
8862;DHT22;4799;50.996;4.754;2022-09-03T15:13:52;29.40;54.70
8862;DHT22;4799;50.996;4.754;2022-09-03T15:30:05;29.40;55.80
8862;DHT22;4799;50.996;4.754;2022-09-03T15:35:10;29.30;55.80
8862;DHT22;4799;50.996;4.754;2022-09-03T15:38:04;29.20;55.70
8862;DHT22;4799;50.996;4.754;2022-09-03T15:40:34;29.20;56.30
8862;DHT22;4799;50.996;4.754;2022-09-03T15:43:21;29.20;56.10
8862;DHT22;4799;50.996;4.754;2022-09-03T15:53:55;29.00;57.10
8862;DHT22;4799;50.996;4.754;2022-09-03T16:02:12;28.60;60.30
8862;DHT22;4799;50.996;4.754;2022-09-03T16:04:59;28.50;62.20
8862;DHT22;4799;50.996;4.754;2022-09-03T16:15:44;28.10;66.60
8862;DHT22;4799;50.996;4.754;2022-09-03T16:18:25;28.10;67.00
8862;DHT22;4799;50.996;4.754;2022-09-03T16:21:30;28.10;66.90
8862;DHT22;4799;50.996;4.754;2022-09-03T16:26:46;28.10;66.00
8862;DHT22;4799;50.996;4.754;2022-09-03T16:29:16;28.10;66.00
8862;DHT22;4799;50.996;4.754;2022-09-03T16:42:17;27.70;67.30
8862;DHT22;4799;50.996;4.754;2022-09-03T16:53:19;27.20;71.40
8862;DHT22;4799;50.996;4.754;2022-09-03T16:59:00;26.70;74.50
8862;DHT22;4799;50.996;4.754;2022-09-03T17:12:12;26.20;79.90
8862;DHT22;4799;50.996;4.754;2022-09-03T17:18:05;26.00;85.80
8862;DHT22;4799;50.996;4.754;2022-09-03T17:20:47;26.00;88.00
8862;DHT22;4799;50.996;4.754;2022-09-03T17:26:31;25.90;88.50
8862;DHT22;4799;50.996;4.754;2022-09-03T17:29:15;25.70;90.60
8862;DHT22;4799;50.996;4.754;2022-09-03T17:42:26;25.20;92.00
8862;DHT22;4799;50.996;4.754;2022-09-03T17:45:19;25.10;92.00
8862;DHT22;4799;50.996;4.754;2022-09-03T17:48:17;25.00;92.50
8862;DHT22;4799;50.996;4.754;2022-09-03T17:50:59;24.90;93.50
8862;DHT22;4799;50.996;4.754;2022-09-03T18:01:51;24.40;95.30
8862;DHT22;4799;50.996;4.754;2022-09-03T18:05:17;24.30;96.10
8862;DHT22;4799;50.996;4.754;2022-09-03T18:07:30;24.20;96.80
8862;DHT22;4799;50.996;4.754;2022-09-03T18:10:03;24.10;97.70
8862;DHT22;4799;50.996;4.754;2022-09-03T18:13:04;24.00;98.50
8862;DHT22;4799;50.996;4.754;2022-09-03T18:15:51;23.90;99.70
8862;DHT22;4799;50.996;4.754;2022-09-03T18:18:26;23.80;99.90
8862;DHT22;4799;50.996;4.754;2022-09-03T18:20:56;23.70;99.90
8862;DHT22;4799;50.996;4.754;2022-09-03T18:26:52;23.50;99.90
8862;DHT22;4799;50.996;4.754;2022-09-03T18:29:54;23.50;99.90
8862;DHT22;4799;50.996;4.754;2022-09-03T18:32:41;23.40;99.90
8862;DHT22;4799;50.996;4.754;2022-09-03T18:35:29;23.30;99.90
8862;DHT22;4799;50.996;4.754;2022-09-03T18:38:14;23.30;99.90
8862;DHT22;4799;50.996;4.754;2022-09-03T18:44:28;23.20;99.90
8862;DHT22;4799;50.996;4.754;2022-09-03T18:50:21;23.10;99.90
8862;DHT22;4799;50.996;4.754;2022-09-03T18:53:16;23.10;99.90
8862;DHT22;4799;50.996;4.754;2022-09-03T18:59:28;22.80;99.90
8862;DHT22;4799;50.996;4.754;2022-09-03T19:02:32;22.70;99.90
8862;DHT22;4799;50.996;4.754;2022-09-03T19:05:35;22.70;99.90
8862;DHT22;4799;50.996;4.754;2022-09-03T19:08:40;22.60;99.90
8862;DHT22;4799;50.996;4.754;2022-09-03T19:11:36;22.60;99.90
8862;DHT22;4799;50.996;4.754;2022-09-03T19:14:46;22.60;99.90
8862;DHT22;4799;50.996;4.754;2022-09-03T19:18:02;22.60;99.90
8862;DHT22;4799;50.996;4.754;2022-09-03T19:24:01;22.60;99.90
8862;DHT22;4799;50.996;4.754;2022-09-03T19:30:23;22.60;99.90
8862;DHT22;4799;50.996;4.754;2022-09-03T19:53:47;22.00;99.90
8862;DHT22;4799;50.996;4.754;2022-09-03T19:56:34;21.90;99.90
8862;DHT22;4799;50.996;4.754;2022-09-03T19:59:23;21.80;99.90
8862;DHT22;4799;50.996;4.754;2022-09-03T20:02:08;21.80;99.90
8862;DHT22;4799;50.996;4.754;2022-09-03T20:04:58;21.70;99.90
8862;DHT22;4799;50.996;4.754;2022-09-03T20:07:44;21.60;99.90
8862;DHT22;4799;50.996;4.754;2022-09-03T20:10:31;21.60;99.90
8862;DHT22;4799;50.996;4.754;2022-09-03T20:15:41;21.40;99.90
8862;DHT22;4799;50.996;4.754;2022-09-03T20:21:09;21.30;99.90
8862;DHT22;4799;50.996;4.754;2022-09-03T20:23:49;21.20;99.90
8862;DHT22;4799;50.996;4.754;2022-09-03T20:34:42;21.00;99.90
8862;DHT22;4799;50.996;4.754;2022-09-03T20:37:39;20.90;99.90
8862;DHT22;4799;50.996;4.754;2022-09-03T20:40:19;20.90;99.90
8862;DHT22;4799;50.996;4.754;2022-09-03T20:43:18;20.80;99.90
8862;DHT22;4799;50.996;4.754;2022-09-03T20:45:51;20.70;99.90
8862;DHT22;4799;50.996;4.754;2022-09-03T20:51:13;20.60;99.90
8862;DHT22;4799;50.996;4.754;2022-09-03T20:56:53;20.50;99.90
8862;DHT22;4799;50.996;4.754;2022-09-03T21:10:46;20.20;99.90
8862;DHT22;4799;50.996;4.754;2022-09-03T21:13:41;20.20;99.90
8862;DHT22;4799;50.996;4.754;2022-09-03T21:16:41;20.20;99.90
8862;DHT22;4799;50.996;4.754;2022-09-03T21:22:33;20.10;99.90
8862;DHT22;4799;50.996;4.754;2022-09-03T21:25:04;20.00;99.90
8862;DHT22;4799;50.996;4.754;2022-09-03T21:28:23;20.00;99.90
8862;DHT22;4799;50.996;4.754;2022-09-03T21:30:23;20.00;99.90
8862;DHT22;4799;50.996;4.754;2022-09-03T21:32:53;19.90;99.90
8862;DHT22;4799;50.996;4.754;2022-09-03T21:35:32;19.90;99.90
8862;DHT22;4799;50.996;4.754;2022-09-03T21:40:31;19.90;99.90
8862;DHT22;4799;50.996;4.754;2022-09-03T21:48:08;19.90;99.90
8862;DHT22;4799;50.996;4.754;2022-09-03T21:50:48;19.90;99.90
8862;DHT22;4799;50.996;4.754;2022-09-03T21:56:11;19.90;99.90
8862;DHT22;4799;50.996;4.754;2022-09-03T21:59:26;19.90;99.90
8862;DHT22;4799;50.996;4.754;2022-09-03T22:02:02;19.90;99.90
8862;DHT22;4799;50.996;4.754;2022-09-03T22:04:31;19.90;99.90
8862;DHT22;4799;50.996;4.754;2022-09-03T22:07:04;19.90;99.90
8862;DHT22;4799;50.996;4.754;2022-09-03T22:09:48;19.80;99.90
8862;DHT22;4799;50.996;4.754;2022-09-03T22:12:32;19.80;99.90
8862;DHT22;4799;50.996;4.754;2022-09-03T22:15:01;19.70;99.90
8862;DHT22;4799;50.996;4.754;2022-09-03T22:18:02;19.60;99.90
8862;DHT22;4799;50.996;4.754;2022-09-03T22:20:29;19.60;99.90
8862;DHT22;4799;50.996;4.754;2022-09-03T22:23:12;19.50;99.90
8862;DHT22;4799;50.996;4.754;2022-09-03T22:25:51;19.40;99.90
8862;DHT22;4799;50.996;4.754;2022-09-03T22:28:41;19.40;99.90
8862;DHT22;4799;50.996;4.754;2022-09-03T22:36:52;19.20;99.90
8862;DHT22;4799;50.996;4.754;2022-09-03T22:39:25;19.20;99.90
8862;DHT22;4799;50.996;4.754;2022-09-03T22:51:09;18.90;99.90
8862;DHT22;4799;50.996;4.754;2022-09-03T22:58:30;18.80;99.90